sensor_id;sensor_type;location;lat;lon;timestamp;P1;durP1;ratioP1;P2;durP2;ratioP2
21862;SDS011;11096;51.338;12.524;2023-02-26T00:02:03;4.22;;;1.70;;
21862;SDS011;11096;51.338;12.524;2023-02-26T00:04:28;3.20;;;2.17;;
21862;SDS011;11096;51.338;12.524;2023-02-26T00:06:54;2.47;;;1.65;;
21862;SDS011;11096;51.338;12.524;2023-02-26T00:09:20;1.45;;;1.35;;
21862;SDS011;11096;51.338;12.524;2023-02-26T00:11:46;3.22;;;1.60;;
21862;SDS011;11096;51.338;12.524;2023-02-26T00:14:13;4.10;;;1.42;;
21862;SDS011;11096;51.338;12.524;2023-02-26T00:16:40;3.40;;;1.40;;
21862;SDS011;11096;51.338;12.524;2023-02-26T00:19:07;1.10;;;0.93;;
21862;SDS011;11096;51.338;12.524;2023-02-26T00:21:34;3.47;;;1.13;;
21862;SDS011;11096;51.338;12.524;2023-02-26T00:24:00;3.65;;;1.55;;
21862;SDS011;11096;51.338;12.524;2023-02-26T00:26:26;1.42;;;1.33;;
21862;SDS011;11096;51.338;12.524;2023-02-26T00:28:54;6.28;;;1.50;;
21862;SDS011;11096;51.338;12.524;2023-02-26T00:31:20;2.25;;;1.70;;
21862;SDS011;11096;51.338;12.524;2023-02-26T00:33:50;1.88;;;1.10;;
21862;SDS011;11096;51.338;12.524;2023-02-26T00:36:37;1.65;;;1.10;;
21862;SDS011;11096;51.338;12.524;2023-02-26T00:39:18;1.50;;;1.40;;
21862;SDS011;11096;51.338;12.524;2023-02-26T00:42:05;3.50;;;1.30;;
21862;SDS011;11096;51.338;12.524;2023-02-26T00:44:30;2.28;;;1.05;;
21862;SDS011;11096;51.338;12.524;2023-02-26T00:46:59;5.70;;;1.38;;
21862;SDS011;11096;51.338;12.524;2023-02-26T00:52:05;2.42;;;1.05;;
21862;SDS011;11096;51.338;12.524;2023-02-26T00:54:43;2.78;;;1.15;;
21862;SDS011;11096;51.338;12.524;2023-02-26T00:57:08;1.15;;;0.95;;
21862;SDS011;11096;51.338;12.524;2023-02-26T00:59:34;1.60;;;1.25;;
21862;SDS011;11096;51.338;12.524;2023-02-26T01:01:59;1.40;;;1.23;;
21862;SDS011;11096;51.338;12.524;2023-02-26T01:04:24;3.63;;;1.13;;
21862;SDS011;11096;51.338;12.524;2023-02-26T01:06:51;2.80;;;1.13;;
21862;SDS011;11096;51.338;12.524;2023-02-26T01:09:29;4.18;;;1.20;;
21862;SDS011;11096;51.338;12.524;2023-02-26T01:12:00;3.00;;;1.35;;
21862;SDS011;11096;51.338;12.524;2023-02-26T01:14:30;4.30;;;1.15;;
21862;SDS011;11096;51.338;12.524;2023-02-26T01:17:05;1.95;;;1.23;;
21862;SDS011;11096;51.338;12.524;2023-02-26T01:22:10;2.60;;;1.40;;
21862;SDS011;11096;51.338;12.524;2023-02-26T01:25:05;2.50;;;1.25;;
21862;SDS011;11096;51.338;12.524;2023-02-26T01:27:33;1.92;;;1.15;;
21862;SDS011;11096;51.338;12.524;2023-02-26T01:29:59;3.53;;;1.50;;
21862;SDS011;11096;51.338;12.524;2023-02-26T01:43:27;1.30;;;1.20;;
21862;SDS011;11096;51.338;12.524;2023-02-26T01:48:55;1.65;;;1.20;;
21862;SDS011;11096;51.338;12.524;2023-02-26T01:54:09;3.22;;;1.38;;
21862;SDS011;11096;51.338;12.524;2023-02-26T01:56:35;4.10;;;2.13;;
21862;SDS011;11096;51.338;12.524;2023-02-26T01:59:02;0.80;;;0.77;;
21862;SDS011;11096;51.338;12.524;2023-02-26T02:01:32;4.00;;;1.42;;
21862;SDS011;11096;51.338;12.524;2023-02-26T02:03:58;3.33;;;1.30;;
21862;SDS011;11096;51.338;12.524;2023-02-26T02:06:24;2.50;;;1.10;;
21862;SDS011;11096;51.338;12.524;2023-02-26T02:08:53;1.98;;;1.30;;
21862;SDS011;11096;51.338;12.524;2023-02-26T02:11:19;1.98;;;1.10;;
21862;SDS011;11096;51.338;12.524;2023-02-26T02:27:20;1.67;;;0.90;;
21862;SDS011;11096;51.338;12.524;2023-02-26T02:33:21;3.83;;;1.35;;
21862;SDS011;11096;51.338;12.524;2023-02-26T02:35:52;2.50;;;1.25;;
21862;SDS011;11096;51.338;12.524;2023-02-26T02:38:22;1.75;;;1.10;;
21862;SDS011;11096;51.338;12.524;2023-02-26T02:40:54;2.80;;;1.50;;
21862;SDS011;11096;51.338;12.524;2023-02-26T02:43:26;1.20;;;1.00;;
21862;SDS011;11096;51.338;12.524;2023-02-26T02:48:34;1.42;;;1.17;;
21862;SDS011;11096;51.338;12.524;2023-02-26T02:51:10;1.33;;;1.17;;
21862;SDS011;11096;51.338;12.524;2023-02-26T02:53:40;1.25;;;0.90;;
21862;SDS011;11096;51.338;12.524;2023-02-26T02:56:15;2.83;;;1.10;;
21862;SDS011;11096;51.338;12.524;2023-02-26T02:58:48;2.05;;;1.33;;
21862;SDS011;11096;51.338;12.524;2023-02-26T03:01:20;1.30;;;1.20;;
21862;SDS011;11096;51.338;12.524;2023-02-26T03:06:16;1.48;;;1.30;;
21862;SDS011;11096;51.338;12.524;2023-02-26T03:08:42;1.70;;;1.30;;
21862;SDS011;11096;51.338;12.524;2023-02-26T03:11:08;1.52;;;1.17;;
21862;SDS011;11096;51.338;12.524;2023-02-26T03:13:34;2.28;;;1.20;;
21862;SDS011;11096;51.338;12.524;2023-02-26T03:27:25;2.35;;;1.25;;
21862;SDS011;11096;51.338;12.524;2023-02-26T03:30:08;2.95;;;1.30;;
21862;SDS011;11096;51.338;12.524;2023-02-26T03:33:02;1.55;;;1.00;;
21862;SDS011;11096;51.338;12.524;2023-02-26T03:38:06;1.88;;;1.45;;
21862;SDS011;11096;51.338;12.524;2023-02-26T03:40:38;3.45;;;1.40;;
21862;SDS011;11096;51.338;12.524;2023-02-26T03:43:23;1.80;;;1.20;;
21862;SDS011;11096;51.338;12.524;2023-02-26T03:45:55;4.50;;;1.40;;
21862;SDS011;11096;51.338;12.524;2023-02-26T03:48:27;1.85;;;1.55;;
21862;SDS011;11096;51.338;12.524;2023-02-26T03:51:13;3.08;;;1.40;;
21862;SDS011;11096;51.338;12.524;2023-02-26T03:54:03;3.67;;;1.25;;
21862;SDS011;11096;51.338;12.524;2023-02-26T03:56:40;3.20;;;1.50;;
21862;SDS011;11096;51.338;12.524;2023-02-26T03:59:11;1.98;;;1.20;;
21862;SDS011;11096;51.338;12.524;2023-02-26T04:01:40;1.90;;;1.70;;
21862;SDS011;11096;51.338;12.524;2023-02-26T04:04:13;1.70;;;1.20;;
21862;SDS011;11096;51.338;12.524;2023-02-26T04:06:43;2.28;;;1.30;;
21862;SDS011;11096;51.338;12.524;2023-02-26T04:09:10;1.45;;;1.13;;
21862;SDS011;11096;51.338;12.524;2023-02-26T04:11:36;3.00;;;1.17;;
21862;SDS011;11096;51.338;12.524;2023-02-26T04:14:03;2.75;;;1.55;;
21862;SDS011;11096;51.338;12.524;2023-02-26T04:16:29;1.90;;;1.40;;
21862;SDS011;11096;51.338;12.524;2023-02-26T04:18:54;2.78;;;1.58;;
21862;SDS011;11096;51.338;12.524;2023-02-26T04:21:20;3.65;;;1.38;;
21862;SDS011;11096;51.338;12.524;2023-02-26T04:23:46;1.83;;;1.27;;
21862;SDS011;11096;51.338;12.524;2023-02-26T04:26:12;1.48;;;1.17;;
21862;SDS011;11096;51.338;12.524;2023-02-26T04:28:38;1.75;;;1.35;;
21862;SDS011;11096;51.338;12.524;2023-02-26T04:31:04;6.30;;;1.33;;
21862;SDS011;11096;51.338;12.524;2023-02-26T04:33:30;1.73;;;1.20;;
21862;SDS011;11096;51.338;12.524;2023-02-26T04:35:57;2.90;;;1.20;;
21862;SDS011;11096;51.338;12.524;2023-02-26T04:38:23;1.73;;;1.30;;
21862;SDS011;11096;51.338;12.524;2023-02-26T04:40:49;2.60;;;1.25;;
21862;SDS011;11096;51.338;12.524;2023-02-26T04:43:15;3.40;;;1.40;;
21862;SDS011;11096;51.338;12.524;2023-02-26T04:45:41;6.43;;;1.73;;
21862;SDS011;11096;51.338;12.524;2023-02-26T04:48:08;2.78;;;1.48;;
21862;SDS011;11096;51.338;12.524;2023-02-26T04:50:34;4.78;;;1.25;;
21862;SDS011;11096;51.338;12.524;2023-02-26T04:52:59;1.55;;;1.40;;
21862;SDS011;11096;51.338;12.524;2023-02-26T04:55:24;2.67;;;1.50;;
21862;SDS011;11096;51.338;12.524;2023-02-26T04:57:50;1.33;;;0.98;;
21862;SDS011;11096;51.338;12.524;2023-02-26T05:00:16;3.45;;;1.45;;
21862;SDS011;11096;51.338;12.524;2023-02-26T05:02:41;2.13;;;1.23;;
21862;SDS011;11096;51.338;12.524;2023-02-26T05:05:07;1.70;;;1.08;;
21862;SDS011;11096;51.338;12.524;2023-02-26T05:07:33;7.45;;;1.35;;
21862;SDS011;11096;51.338;12.524;2023-02-26T05:09:58;2.25;;;1.05;;
21862;SDS011;11096;51.338;12.524;2023-02-26T05:12:23;3.78;;;1.50;;
21862;SDS011;11096;51.338;12.524;2023-02-26T05:14:49;1.67;;;1.45;;
21862;SDS011;11096;51.338;12.524;2023-02-26T05:17:14;3.10;;;1.05;;
21862;SDS011;11096;51.338;12.524;2023-02-26T05:19:40;3.08;;;1.50;;
21862;SDS011;11096;51.338;12.524;2023-02-26T05:22:05;1.00;;;0.90;;
21862;SDS011;11096;51.338;12.524;2023-02-26T05:24:30;2.58;;;1.13;;
21862;SDS011;11096;51.338;12.524;2023-02-26T05:26:56;1.23;;;1.00;;
21862;SDS011;11096;51.338;12.524;2023-02-26T05:29:21;1.25;;;1.10;;
21862;SDS011;11096;51.338;12.524;2023-02-26T05:31:47;1.27;;;0.90;;
21862;SDS011;11096;51.338;12.524;2023-02-26T05:34:12;1.88;;;1.27;;
21862;SDS011;11096;51.338;12.524;2023-02-26T05:36:37;1.35;;;1.08;;
21862;SDS011;11096;51.338;12.524;2023-02-26T05:39:03;4.18;;;1.20;;
21862;SDS011;11096;51.338;12.524;2023-02-26T05:41:28;6.28;;;1.60;;
21862;SDS011;11096;51.338;12.524;2023-02-26T05:43:54;5.10;;;1.00;;
21862;SDS011;11096;51.338;12.524;2023-02-26T05:46:19;0.82;;;0.80;;
21862;SDS011;11096;51.338;12.524;2023-02-26T05:48:44;1.13;;;1.00;;
21862;SDS011;11096;51.338;12.524;2023-02-26T05:51:10;2.05;;;1.00;;
21862;SDS011;11096;51.338;12.524;2023-02-26T05:53:35;4.47;;;1.27;;
21862;SDS011;11096;51.338;12.524;2023-02-26T05:56:01;0.80;;;0.80;;
21862;SDS011;11096;51.338;12.524;2023-02-26T05:58:26;1.33;;;0.88;;
21862;SDS011;11096;51.338;12.524;2023-02-26T06:00:52;2.55;;;0.90;;
21862;SDS011;11096;51.338;12.524;2023-02-26T06:03:17;3.13;;;0.90;;
21862;SDS011;11096;51.338;12.524;2023-02-26T06:05:43;1.63;;;1.13;;
21862;SDS011;11096;51.338;12.524;2023-02-26T06:08:08;4.25;;;1.38;;
21862;SDS011;11096;51.338;12.524;2023-02-26T06:10:36;2.95;;;1.00;;
21862;SDS011;11096;51.338;12.524;2023-02-26T06:13:01;1.80;;;1.00;;
21862;SDS011;11096;51.338;12.524;2023-02-26T06:15:27;0.70;;;0.70;;
21862;SDS011;11096;51.338;12.524;2023-02-26T06:17:52;1.33;;;1.05;;
21862;SDS011;11096;51.338;12.524;2023-02-26T06:20:17;2.75;;;0.90;;
21862;SDS011;11096;51.338;12.524;2023-02-26T06:22:43;1.48;;;0.90;;
21862;SDS011;11096;51.338;12.524;2023-02-26T06:25:08;2.17;;;1.10;;
21862;SDS011;11096;51.338;12.524;2023-02-26T06:27:34;3.03;;;1.00;;
21862;SDS011;11096;51.338;12.524;2023-02-26T06:29:59;1.02;;;0.80;;
21862;SDS011;11096;51.338;12.524;2023-02-26T06:32:24;0.95;;;0.93;;
21862;SDS011;11096;51.338;12.524;2023-02-26T06:34:50;3.28;;;1.15;;
21862;SDS011;11096;51.338;12.524;2023-02-26T06:37:15;3.05;;;1.40;;
21862;SDS011;11096;51.338;12.524;2023-02-26T06:39:41;4.07;;;1.77;;
21862;SDS011;11096;51.338;12.524;2023-02-26T06:42:06;2.10;;;1.05;;
21862;SDS011;11096;51.338;12.524;2023-02-26T06:44:32;1.23;;;0.93;;
21862;SDS011;11096;51.338;12.524;2023-02-26T06:46:57;2.33;;;1.40;;
21862;SDS011;11096;51.338;12.524;2023-02-26T06:49:22;4.53;;;1.15;;
21862;SDS011;11096;51.338;12.524;2023-02-26T06:51:48;3.67;;;1.02;;
21862;SDS011;11096;51.338;12.524;2023-02-26T06:54:13;3.45;;;1.23;;
21862;SDS011;11096;51.338;12.524;2023-02-26T06:56:39;0.90;;;0.90;;
21862;SDS011;11096;51.338;12.524;2023-02-26T06:59:04;3.22;;;0.98;;
21862;SDS011;11096;51.338;12.524;2023-02-26T07:01:30;1.30;;;0.77;;
21862;SDS011;11096;51.338;12.524;2023-02-26T07:03:56;2.33;;;1.02;;
21862;SDS011;11096;51.338;12.524;2023-02-26T07:06:22;1.40;;;0.98;;
21862;SDS011;11096;51.338;12.524;2023-02-26T07:08:47;5.00;;;1.40;;
21862;SDS011;11096;51.338;12.524;2023-02-26T07:11:13;3.78;;;1.00;;
21862;SDS011;11096;51.338;12.524;2023-02-26T07:13:39;2.83;;;0.90;;
21862;SDS011;11096;51.338;12.524;2023-02-26T07:16:04;1.95;;;0.82;;
21862;SDS011;11096;51.338;12.524;2023-02-26T07:18:34;0.95;;;0.85;;
21862;SDS011;11096;51.338;12.524;2023-02-26T07:21:00;2.50;;;0.75;;
21862;SDS011;11096;51.338;12.524;2023-02-26T07:23:26;2.30;;;1.00;;
21862;SDS011;11096;51.338;12.524;2023-02-26T07:25:52;1.02;;;0.85;;
21862;SDS011;11096;51.338;12.524;2023-02-26T07:28:17;1.10;;;0.90;;
21862;SDS011;11096;51.338;12.524;2023-02-26T07:30:44;1.80;;;0.82;;
21862;SDS011;11096;51.338;12.524;2023-02-26T07:33:10;3.75;;;1.00;;
21862;SDS011;11096;51.338;12.524;2023-02-26T07:35:36;6.63;;;2.72;;
21862;SDS011;11096;51.338;12.524;2023-02-26T07:38:02;3.85;;;1.80;;
21862;SDS011;11096;51.338;12.524;2023-02-26T07:40:27;1.55;;;0.95;;
21862;SDS011;11096;51.338;12.524;2023-02-26T07:42:53;1.55;;;0.80;;
21862;SDS011;11096;51.338;12.524;2023-02-26T07:45:18;0.73;;;0.70;;
21862;SDS011;11096;51.338;12.524;2023-02-26T07:47:46;3.17;;;1.85;;
21862;SDS011;11096;51.338;12.524;2023-02-26T07:50:12;4.45;;;1.90;;
21862;SDS011;11096;51.338;12.524;2023-02-26T07:52:38;2.78;;;1.50;;
21862;SDS011;11096;51.338;12.524;2023-02-26T07:55:04;2.38;;;1.17;;
21862;SDS011;11096;51.338;12.524;2023-02-26T07:57:29;6.32;;;2.45;;
21862;SDS011;11096;51.338;12.524;2023-02-26T07:59:55;7.13;;;3.35;;
21862;SDS011;11096;51.338;12.524;2023-02-26T08:02:20;4.25;;;1.92;;
21862;SDS011;11096;51.338;12.524;2023-02-26T08:04:47;4.13;;;2.22;;
21862;SDS011;11096;51.338;12.524;2023-02-26T08:07:13;7.55;;;2.10;;
21862;SDS011;11096;51.338;12.524;2023-02-26T08:09:38;1.88;;;1.17;;
21862;SDS011;11096;51.338;12.524;2023-02-26T08:12:03;3.22;;;1.58;;
21862;SDS011;11096;51.338;12.524;2023-02-26T08:14:29;2.80;;;1.33;;
21862;SDS011;11096;51.338;12.524;2023-02-26T08:16:54;3.83;;;1.10;;
21862;SDS011;11096;51.338;12.524;2023-02-26T08:19:20;4.45;;;1.23;;
21862;SDS011;11096;51.338;12.524;2023-02-26T08:21:45;1.25;;;0.80;;
21862;SDS011;11096;51.338;12.524;2023-02-26T08:24:11;2.03;;;1.00;;
21862;SDS011;11096;51.338;12.524;2023-02-26T08:26:36;1.27;;;1.00;;
21862;SDS011;11096;51.338;12.524;2023-02-26T08:29:02;1.45;;;1.10;;
21862;SDS011;11096;51.338;12.524;2023-02-26T08:31:28;6.35;;;1.42;;
21862;SDS011;11096;51.338;12.524;2023-02-26T08:33:55;4.15;;;1.13;;
21862;SDS011;11096;51.338;12.524;2023-02-26T08:36:21;3.72;;;1.40;;
21862;SDS011;11096;51.338;12.524;2023-02-26T08:38:47;1.95;;;1.13;;
21862;SDS011;11096;51.338;12.524;2023-02-26T08:41:13;3.03;;;1.33;;
21862;SDS011;11096;51.338;12.524;2023-02-26T08:43:38;1.73;;;1.30;;
21862;SDS011;11096;51.338;12.524;2023-02-26T08:46:04;2.20;;;1.40;;
21862;SDS011;11096;51.338;12.524;2023-02-26T08:48:29;2.60;;;1.25;;
21862;SDS011;11096;51.338;12.524;2023-02-26T08:50:55;3.95;;;1.63;;
21862;SDS011;11096;51.338;12.524;2023-02-26T08:53:21;2.75;;;0.88;;
21862;SDS011;11096;51.338;12.524;2023-02-26T08:55:50;3.17;;;1.38;;
21862;SDS011;11096;51.338;12.524;2023-02-26T08:58:16;3.72;;;1.00;;
21862;SDS011;11096;51.338;12.524;2023-02-26T09:00:42;3.47;;;1.27;;
21862;SDS011;11096;51.338;12.524;2023-02-26T09:03:08;2.22;;;1.33;;
21862;SDS011;11096;51.338;12.524;2023-02-26T09:05:34;4.07;;;1.25;;
21862;SDS011;11096;51.338;12.524;2023-02-26T09:07:59;3.00;;;1.50;;
21862;SDS011;11096;51.338;12.524;2023-02-26T09:10:24;1.58;;;1.27;;
21862;SDS011;11096;51.338;12.524;2023-02-26T09:12:50;3.20;;;1.23;;
21862;SDS011;11096;51.338;12.524;2023-02-26T09:15:15;1.90;;;1.10;;
21862;SDS011;11096;51.338;12.524;2023-02-26T09:17:42;3.22;;;1.38;;
21862;SDS011;11096;51.338;12.524;2023-02-26T09:20:07;1.65;;;1.23;;
21862;SDS011;11096;51.338;12.524;2023-02-26T09:22:34;3.00;;;1.33;;
21862;SDS011;11096;51.338;12.524;2023-02-26T09:25:00;2.83;;;1.10;;
21862;SDS011;11096;51.338;12.524;2023-02-26T09:27:26;2.67;;;1.20;;
21862;SDS011;11096;51.338;12.524;2023-02-26T09:29:51;3.45;;;1.20;;
21862;SDS011;11096;51.338;12.524;2023-02-26T09:32:17;4.03;;;1.27;;
21862;SDS011;11096;51.338;12.524;2023-02-26T09:34:42;2.63;;;1.50;;
21862;SDS011;11096;51.338;12.524;2023-02-26T09:37:08;1.42;;;0.88;;
21862;SDS011;11096;51.338;12.524;2023-02-26T09:39:34;6.75;;;1.38;;
21862;SDS011;11096;51.338;12.524;2023-02-26T09:42:07;3.78;;;1.20;;
21862;SDS011;11096;51.338;12.524;2023-02-26T09:44:49;2.28;;;1.13;;
21862;SDS011;11096;51.338;12.524;2023-02-26T09:47:25;6.25;;;1.20;;
21862;SDS011;11096;51.338;12.524;2023-02-26T09:49:57;1.55;;;0.98;;
21862;SDS011;11096;51.338;12.524;2023-02-26T09:54:57;4.07;;;1.35;;
21862;SDS011;11096;51.338;12.524;2023-02-26T09:57:26;1.70;;;1.17;;
21862;SDS011;11096;51.338;12.524;2023-02-26T09:59:56;2.58;;;1.38;;
21862;SDS011;11096;51.338;12.524;2023-02-26T10:08:03;3.47;;;1.20;;
21862;SDS011;11096;51.338;12.524;2023-02-26T10:16:07;2.42;;;1.08;;
21862;SDS011;11096;51.338;12.524;2023-02-26T10:18:39;3.83;;;1.38;;
21862;SDS011;11096;51.338;12.524;2023-02-26T10:24:27;4.05;;;1.33;;
21862;SDS011;11096;51.338;12.524;2023-02-26T10:27:03;5.93;;;1.63;;
21862;SDS011;11096;51.338;12.524;2023-02-26T10:29:39;5.70;;;2.55;;
21862;SDS011;11096;51.338;12.524;2023-02-26T10:32:23;3.63;;;1.50;;
21862;SDS011;11096;51.338;12.524;2023-02-26T10:34:59;3.67;;;1.38;;
21862;SDS011;11096;51.338;12.524;2023-02-26T10:39:58;4.82;;;1.20;;
21862;SDS011;11096;51.338;12.524;2023-02-26T10:42:46;1.50;;;0.90;;
21862;SDS011;11096;51.338;12.524;2023-02-26T10:50:52;1.83;;;1.40;;
21862;SDS011;11096;51.338;12.524;2023-02-26T10:53:23;3.63;;;1.10;;
21862;SDS011;11096;51.338;12.524;2023-02-26T10:55:51;1.63;;;0.90;;
21862;SDS011;11096;51.338;12.524;2023-02-26T10:58:25;2.50;;;1.05;;
21862;SDS011;11096;51.338;12.524;2023-02-26T11:00:52;1.75;;;0.70;;
21862;SDS011;11096;51.338;12.524;2023-02-26T11:03:19;0.80;;;0.60;;
21862;SDS011;11096;51.338;12.524;2023-02-26T11:05:45;1.77;;;0.75;;
21862;SDS011;11096;51.338;12.524;2023-02-26T11:08:19;1.67;;;0.85;;
21862;SDS011;11096;51.338;12.524;2023-02-26T11:10:55;1.52;;;1.00;;
21862;SDS011;11096;51.338;12.524;2023-02-26T11:13:23;3.60;;;0.90;;
21862;SDS011;11096;51.338;12.524;2023-02-26T11:15:51;2.58;;;0.68;;
21862;SDS011;11096;51.338;12.524;2023-02-26T11:18:20;1.85;;;0.65;;
21862;SDS011;11096;51.338;12.524;2023-02-26T11:20:52;2.72;;;0.85;;
21862;SDS011;11096;51.338;12.524;2023-02-26T11:23:21;1.13;;;0.70;;
21862;SDS011;11096;51.338;12.524;2023-02-26T11:26:07;2.63;;;0.85;;
21862;SDS011;11096;51.338;12.524;2023-02-26T11:28:48;1.90;;;0.90;;
21862;SDS011;11096;51.338;12.524;2023-02-26T11:31:18;3.15;;;0.82;;
21862;SDS011;11096;51.338;12.524;2023-02-26T11:33:59;0.80;;;0.57;;
21862;SDS011;11096;51.338;12.524;2023-02-26T11:36:29;2.60;;;0.80;;
21862;SDS011;11096;51.338;12.524;2023-02-26T11:39:04;2.78;;;0.90;;
21862;SDS011;11096;51.338;12.524;2023-02-26T11:41:37;2.00;;;0.90;;
21862;SDS011;11096;51.338;12.524;2023-02-26T11:44:07;2.88;;;0.70;;
21862;SDS011;11096;51.338;12.524;2023-02-26T11:46:44;2.20;;;1.10;;
21862;SDS011;11096;51.338;12.524;2023-02-26T11:49:14;2.95;;;0.80;;
21862;SDS011;11096;51.338;12.524;2023-02-26T11:51:44;1.05;;;0.70;;
21862;SDS011;11096;51.338;12.524;2023-02-26T11:54:23;3.88;;;0.82;;
21862;SDS011;11096;51.338;12.524;2023-02-26T11:56:52;1.17;;;0.88;;
21862;SDS011;11096;51.338;12.524;2023-02-26T11:59:25;1.65;;;0.80;;
21862;SDS011;11096;51.338;12.524;2023-02-26T12:01:54;1.05;;;0.70;;
21862;SDS011;11096;51.338;12.524;2023-02-26T12:04:21;2.10;;;0.60;;
21862;SDS011;11096;51.338;12.524;2023-02-26T12:06:50;1.60;;;0.82;;
21862;SDS011;11096;51.338;12.524;2023-02-26T12:09:17;1.85;;;0.70;;
21862;SDS011;11096;51.338;12.524;2023-02-26T12:14:23;2.58;;;0.68;;
21862;SDS011;11096;51.338;12.524;2023-02-26T12:24:44;5.13;;;0.70;;
21862;SDS011;11096;51.338;12.524;2023-02-26T12:41:55;1.25;;;0.50;;
21862;SDS011;11096;51.338;12.524;2023-02-26T12:44:33;1.55;;;0.60;;
21862;SDS011;11096;51.338;12.524;2023-02-26T12:49:34;1.70;;;0.88;;
21862;SDS011;11096;51.338;12.524;2023-02-26T12:55:30;1.27;;;0.57;;
21862;SDS011;11096;51.338;12.524;2023-02-26T13:09:34;3.10;;;0.70;;
21862;SDS011;11096;51.338;12.524;2023-02-26T13:17:49;1.95;;;0.85;;
21862;SDS011;11096;51.338;12.524;2023-02-26T13:20:33;0.85;;;0.52;;
21862;SDS011;11096;51.338;12.524;2023-02-26T13:23:08;1.00;;;0.60;;
21862;SDS011;11096;51.338;12.524;2023-02-26T13:25:42;1.52;;;0.60;;
21862;SDS011;11096;51.338;12.524;2023-02-26T13:28:20;1.95;;;0.60;;
21862;SDS011;11096;51.338;12.524;2023-02-26T13:31:26;0.75;;;0.63;;
21862;SDS011;11096;51.338;12.524;2023-02-26T13:34:15;1.77;;;0.98;;
21862;SDS011;11096;51.338;12.524;2023-02-26T13:36:47;2.17;;;0.90;;
21862;SDS011;11096;51.338;12.524;2023-02-26T13:42:28;0.75;;;0.73;;
21862;SDS011;11096;51.338;12.524;2023-02-26T13:51:11;5.10;;;1.60;;
21862;SDS011;11096;51.338;12.524;2023-02-26T13:53:54;2.33;;;1.15;;
21862;SDS011;11096;51.338;12.524;2023-02-26T13:59:16;3.42;;;2.25;;
21862;SDS011;11096;51.338;12.524;2023-02-26T14:01:54;2.80;;;1.20;;
21862;SDS011;11096;51.338;12.524;2023-02-26T14:04:25;2.00;;;1.20;;
21862;SDS011;11096;51.338;12.524;2023-02-26T14:07:10;1.95;;;1.45;;
21862;SDS011;11096;51.338;12.524;2023-02-26T14:09:46;1.38;;;1.00;;
21862;SDS011;11096;51.338;12.524;2023-02-26T14:12:34;2.38;;;1.42;;
21862;SDS011;11096;51.338;12.524;2023-02-26T14:17:47;1.17;;;0.88;;
21862;SDS011;11096;51.338;12.524;2023-02-26T14:20:16;0.60;;;0.60;;
21862;SDS011;11096;51.338;12.524;2023-02-26T14:22:42;1.30;;;0.70;;
21862;SDS011;11096;51.338;12.524;2023-02-26T14:30:49;0.50;;;0.50;;
21862;SDS011;11096;51.338;12.524;2023-02-26T14:33:28;0.73;;;0.60;;
21862;SDS011;11096;51.338;12.524;2023-02-26T14:35:55;2.17;;;0.50;;
21862;SDS011;11096;51.338;12.524;2023-02-26T14:43:57;2.03;;;0.70;;
21862;SDS011;11096;51.338;12.524;2023-02-26T14:46:26;1.80;;;0.80;;
21862;SDS011;11096;51.338;12.524;2023-02-26T14:48:52;2.05;;;0.98;;
21862;SDS011;11096;51.338;12.524;2023-02-26T15:18:51;5.47;;;1.50;;
21862;SDS011;11096;51.338;12.524;2023-02-26T15:21:40;3.15;;;1.35;;
21862;SDS011;11096;51.338;12.524;2023-02-26T15:24:24;1.35;;;1.02;;
21862;SDS011;11096;51.338;12.524;2023-02-26T15:26:54;2.97;;;0.80;;
21862;SDS011;11096;51.338;12.524;2023-02-26T15:29:26;1.38;;;0.70;;
21862;SDS011;11096;51.338;12.524;2023-02-26T15:31:59;1.52;;;0.68;;
21862;SDS011;11096;51.338;12.524;2023-02-26T15:34:46;2.13;;;0.90;;
21862;SDS011;11096;51.338;12.524;2023-02-26T15:37:17;2.75;;;0.80;;
21862;SDS011;11096;51.338;12.524;2023-02-26T15:39:47;1.38;;;0.80;;
21862;SDS011;11096;51.338;12.524;2023-02-26T15:42:13;0.88;;;0.80;;
21862;SDS011;11096;51.338;12.524;2023-02-26T15:44:39;2.42;;;1.10;;
21862;SDS011;11096;51.338;12.524;2023-02-26T15:47:05;1.80;;;1.20;;
21862;SDS011;11096;51.338;12.524;2023-02-26T15:49:38;1.55;;;1.05;;
21862;SDS011;11096;51.338;12.524;2023-02-26T15:52:07;1.70;;;1.10;;
21862;SDS011;11096;51.338;12.524;2023-02-26T15:54:40;3.63;;;1.35;;
21862;SDS011;11096;51.338;12.524;2023-02-26T15:57:09;1.73;;;1.25;;
21862;SDS011;11096;51.338;12.524;2023-02-26T15:59:47;1.65;;;1.13;;
21862;SDS011;11096;51.338;12.524;2023-02-26T16:02:15;4.30;;;1.80;;
21862;SDS011;11096;51.338;12.524;2023-02-26T16:04:44;3.78;;;1.70;;
21862;SDS011;11096;51.338;12.524;2023-02-26T16:07:10;4.22;;;1.70;;
21862;SDS011;11096;51.338;12.524;2023-02-26T16:09:39;4.35;;;1.98;;
21862;SDS011;11096;51.338;12.524;2023-02-26T16:12:08;3.25;;;1.85;;
21862;SDS011;11096;51.338;12.524;2023-02-26T16:14:40;6.63;;;1.75;;
21862;SDS011;11096;51.338;12.524;2023-02-26T16:17:11;3.17;;;1.20;;
21862;SDS011;11096;51.338;12.524;2023-02-26T16:19:46;6.60;;;2.55;;
21862;SDS011;11096;51.338;12.524;2023-02-26T16:22:23;7.75;;;2.13;;
21862;SDS011;11096;51.338;12.524;2023-02-26T16:25:14;5.80;;;2.40;;
21862;SDS011;11096;51.338;12.524;2023-02-26T16:27:40;4.35;;;1.77;;
21862;SDS011;11096;51.338;12.524;2023-02-26T16:30:12;11.25;;;2.88;;
21862;SDS011;11096;51.338;12.524;2023-02-26T16:32:42;6.13;;;2.50;;
21862;SDS011;11096;51.338;12.524;2023-02-26T16:35:15;9.27;;;2.65;;
21862;SDS011;11096;51.338;12.524;2023-02-26T16:37:45;9.40;;;2.78;;
21862;SDS011;11096;51.338;12.524;2023-02-26T16:47:58;8.45;;;2.70;;
21862;SDS011;11096;51.338;12.524;2023-02-26T16:50:29;6.00;;;2.53;;
21862;SDS011;11096;51.338;12.524;2023-02-26T16:53:00;5.20;;;2.38;;
21862;SDS011;11096;51.338;12.524;2023-02-26T16:55:34;4.25;;;2.65;;
21862;SDS011;11096;51.338;12.524;2023-02-26T16:58:04;5.20;;;2.92;;
21862;SDS011;11096;51.338;12.524;2023-02-26T17:00:31;6.05;;;2.70;;
21862;SDS011;11096;51.338;12.524;2023-02-26T17:05:38;6.13;;;2.72;;
21862;SDS011;11096;51.338;12.524;2023-02-26T17:08:07;5.75;;;2.80;;
21862;SDS011;11096;51.338;12.524;2023-02-26T17:13:27;5.72;;;2.50;;
21862;SDS011;11096;51.338;12.524;2023-02-26T17:15:57;3.65;;;2.33;;
21862;SDS011;11096;51.338;12.524;2023-02-26T17:18:25;7.90;;;2.35;;
21862;SDS011;11096;51.338;12.524;2023-02-26T17:20:50;5.70;;;2.90;;
21862;SDS011;11096;51.338;12.524;2023-02-26T17:23:16;4.65;;;2.70;;
21862;SDS011;11096;51.338;12.524;2023-02-26T17:25:46;4.20;;;2.25;;
21862;SDS011;11096;51.338;12.524;2023-02-26T17:28:25;4.47;;;2.13;;
21862;SDS011;11096;51.338;12.524;2023-02-26T17:30:52;4.18;;;2.38;;
21862;SDS011;11096;51.338;12.524;2023-02-26T17:33:18;6.03;;;2.63;;
21862;SDS011;11096;51.338;12.524;2023-02-26T17:35:44;6.05;;;2.97;;
21862;SDS011;11096;51.338;12.524;2023-02-26T17:38:10;6.78;;;3.17;;
21862;SDS011;11096;51.338;12.524;2023-02-26T17:40:40;5.30;;;2.40;;
21862;SDS011;11096;51.338;12.524;2023-02-26T17:43:08;3.67;;;2.13;;
21862;SDS011;11096;51.338;12.524;2023-02-26T17:45:34;4.53;;;2.67;;
21862;SDS011;11096;51.338;12.524;2023-02-26T17:48:03;4.88;;;2.45;;
21862;SDS011;11096;51.338;12.524;2023-02-26T17:53:11;3.58;;;2.22;;
21862;SDS011;11096;51.338;12.524;2023-02-26T17:55:37;8.10;;;2.05;;
21862;SDS011;11096;51.338;12.524;2023-02-26T17:58:04;4.55;;;2.20;;
21862;SDS011;11096;51.338;12.524;2023-02-26T18:00:31;4.32;;;1.85;;
21862;SDS011;11096;51.338;12.524;2023-02-26T18:02:58;5.45;;;2.63;;
21862;SDS011;11096;51.338;12.524;2023-02-26T18:05:23;9.35;;;3.30;;
21862;SDS011;11096;51.338;12.524;2023-02-26T18:07:51;13.75;;;4.78;;